createdAt,value
2019-04-26T00:00:24.039Z,0.00
2019-04-26T00:01:24.023Z,0.00
2019-04-26T00:02:24.016Z,0.00
2019-04-26T00:03:24.030Z,0.00
2019-04-26T00:04:23.993Z,0.00
2019-04-26T00:05:33.857Z,0.00
2019-04-26T00:06:24.969Z,0.00
2019-04-26T00:07:23.959Z,0.00
2019-04-26T00:08:23.953Z,0.00
2019-04-26T00:09:23.949Z,0.00
2019-04-26T00:10:23.928Z,0.00
2019-04-26T00:11:23.920Z,0.00
2019-04-26T00:12:23.909Z,0.00
2019-04-26T00:13:23.895Z,0.00
2019-04-26T00:14:23.893Z,0.00
2019-04-26T00:15:23.875Z,0.00
2019-04-26T00:16:23.864Z,0.00
2019-04-26T00:17:23.856Z,0.00
2019-04-26T00:18:23.841Z,0.00
2019-04-26T00:19:23.841Z,0.00
2019-04-26T00:20:23.819Z,0.00
2019-04-26T00:21:23.810Z,0.00
2019-04-26T00:22:23.802Z,0.00
2019-04-26T00:23:23.786Z,0.00
2019-04-26T00:24:23.788Z,0.00
2019-04-26T00:25:23.765Z,0.00
2019-04-26T00:26:23.760Z,0.00
2019-04-26T00:27:23.745Z,0.00
2019-04-26T00:28:23.733Z,0.00
2019-04-26T00:29:23.736Z,0.00
2019-04-26T00:30:23.712Z,0.00
2019-04-26T00:31:23.716Z,0.00
2019-04-26T00:32:23.695Z,0.00
2019-04-26T00:33:23.682Z,0.00
2019-04-26T00:34:23.681Z,0.00
2019-04-26T00:35:23.664Z,0.00
2019-04-26T00:36:23.659Z,0.00
2019-04-26T00:37:23.645Z,0.00
2019-04-26T00:38:23.628Z,0.00
2019-04-26T00:39:25.002Z,0.00
2019-04-26T00:40:23.631Z,0.00
2019-04-26T00:41:23.596Z,0.00
2019-04-26T00:42:23.584Z,0.00
2019-04-26T00:43:23.572Z,0.00
2019-04-26T00:44:23.586Z,0.00
2019-04-26T00:45:23.552Z,0.00
2019-04-26T00:46:23.542Z,0.00
2019-04-26T00:47:23.531Z,0.00
2019-04-26T00:48:23.521Z,0.00
2019-04-26T00:49:23.512Z,0.00
2019-04-26T00:50:23.513Z,0.00
2019-04-26T00:51:23.556Z,0.00
2019-04-26T00:52:23.711Z,0.00
2019-04-26T00:53:23.875Z,0.00
2019-04-26T00:54:24.355Z,0.00
2019-04-26T00:55:23.967Z,0.00
2019-04-26T00:56:24.559Z,0.00
2019-04-26T00:57:24.441Z,0.00
2019-04-26T00:58:24.409Z,0.00
2019-04-26T00:59:23.402Z,0.00
2019-04-26T01:00:23.609Z,0.00
2019-04-26T01:01:23.386Z,0.00
2019-04-26T01:02:23.373Z,0.00
2019-04-26T01:03:23.359Z,0.00
2019-04-26T01:04:23.348Z,0.00
2019-04-26T01:05:23.350Z,0.00
2019-04-26T01:06:23.328Z,0.00
2019-04-26T01:07:23.356Z,0.00
2019-04-26T01:08:23.517Z,0.00
2019-04-26T01:09:23.721Z,0.00
2019-04-26T01:10:23.716Z,0.00
2019-04-26T01:11:23.909Z,0.00
2019-04-26T01:12:23.926Z,0.00
2019-04-26T01:13:24.080Z,0.00
2019-04-26T01:14:24.179Z,0.00
2019-04-26T01:15:24.385Z,0.00
2019-04-26T01:16:24.276Z,0.00
2019-04-26T01:17:23.209Z,0.00
2019-04-26T01:18:24.366Z,0.00
2019-04-26T01:19:23.189Z,0.00
2019-04-26T01:20:23.189Z,0.00
2019-04-26T01:21:23.167Z,0.00
2019-04-26T01:22:23.379Z,0.00
2019-04-26T01:23:23.148Z,0.00
2019-04-26T01:24:23.229Z,0.00
2019-04-26T01:25:23.213Z,0.00
2019-04-26T01:26:23.269Z,0.00
2019-04-26T01:27:23.355Z,0.00
2019-04-26T01:28:23.391Z,0.00
2019-04-26T01:29:23.741Z,0.00
2019-04-26T01:30:23.815Z,0.00
2019-04-26T01:31:23.897Z,0.00
2019-04-26T01:32:24.049Z,0.00
2019-04-26T01:33:24.058Z,0.00
2019-04-26T01:34:24.154Z,0.00
2019-04-26T01:35:24.163Z,0.00
2019-04-26T01:36:23.011Z,0.00
2019-04-26T01:37:22.999Z,0.00
2019-04-26T01:38:23.684Z,0.00
2019-04-26T01:39:23.708Z,0.00
2019-04-26T01:40:24.051Z,0.00
2019-04-26T01:41:24.044Z,0.00
2019-04-26T01:42:22.950Z,0.00
2019-04-26T01:43:22.931Z,0.00
2019-04-26T01:44:22.923Z,0.00
2019-04-26T01:45:23.626Z,0.00
2019-04-26T01:46:23.242Z,0.00
2019-04-26T01:47:22.889Z,0.00
2019-04-26T01:48:23.045Z,0.00
2019-04-26T01:49:22.868Z,0.00
2019-04-26T01:50:23.567Z,0.00
2019-04-26T01:51:22.878Z,0.00
2019-04-26T01:52:23.979Z,0.00
2019-04-26T01:53:22.829Z,0.00
2019-04-26T01:54:24.088Z,0.00
2019-04-26T01:55:23.020Z,0.00
2019-04-26T01:56:23.518Z,0.00
2019-04-26T01:57:23.726Z,0.00
2019-04-26T01:58:23.275Z,0.00
2019-04-26T01:59:23.667Z,0.00
2019-04-26T02:00:23.876Z,0.00
2019-04-26T02:01:23.653Z,0.00
2019-04-26T02:02:23.688Z,0.00
2019-04-26T02:03:23.863Z,0.00
2019-04-26T02:04:23.922Z,0.00
2019-04-26T02:05:23.965Z,0.00
2019-04-26T02:06:29.188Z,0.00
2019-04-26T02:07:24.123Z,0.00
2019-04-26T02:08:23.414Z,0.00
2019-04-26T02:09:23.005Z,0.00
2019-04-26T02:10:24.009Z,0.00
2019-04-26T02:11:24.081Z,0.00
2019-04-26T02:12:23.827Z,0.00
2019-04-26T02:13:23.616Z,0.00
2019-04-26T02:14:23.771Z,0.00
2019-04-26T02:15:23.017Z,0.00
2019-04-26T02:16:23.614Z,0.00
2019-04-26T02:17:22.976Z,0.00
2019-04-26T02:18:23.951Z,0.00
2019-04-26T02:19:23.316Z,0.00
2019-04-26T02:20:23.222Z,0.00
2019-04-26T02:21:23.589Z,0.00
2019-04-26T02:22:24.392Z,0.00
2019-04-26T02:23:22.500Z,0.00
2019-04-26T02:24:22.489Z,0.00
2019-04-26T02:25:22.484Z,0.00
2019-04-26T02:26:22.472Z,0.00
2019-04-26T02:27:22.470Z,0.00
2019-04-26T02:28:22.446Z,0.00
2019-04-26T02:29:22.438Z,0.00
2019-04-26T02:30:22.428Z,0.00
2019-04-26T02:31:22.426Z,0.00
2019-04-26T02:32:22.420Z,0.00
2019-04-26T02:33:22.395Z,0.00
2019-04-26T02:34:22.387Z,0.00
2019-04-26T02:35:22.374Z,0.00
2019-04-26T02:36:22.361Z,0.00
2019-04-26T02:37:22.358Z,0.00
2019-04-26T02:38:22.344Z,0.00
2019-04-26T02:39:22.368Z,0.00
2019-04-26T02:40:22.348Z,0.00
2019-04-26T02:41:22.307Z,0.00
2019-04-26T02:42:22.307Z,0.00
2019-04-26T02:43:22.291Z,0.00
2019-04-26T02:44:22.389Z,0.00
2019-04-26T02:45:22.265Z,0.00
2019-04-26T02:46:22.262Z,0.00
2019-04-26T02:47:22.260Z,0.00
2019-04-26T02:48:22.232Z,0.00
2019-04-26T02:49:22.224Z,0.00
2019-04-26T02:50:22.215Z,0.00
2019-04-26T02:51:22.202Z,0.00
2019-04-26T02:52:22.209Z,0.00
2019-04-26T02:53:22.179Z,0.00
2019-04-26T02:54:22.176Z,0.00
2019-04-26T02:55:22.156Z,0.00
2019-04-26T02:56:22.147Z,0.00
2019-04-26T02:57:22.152Z,0.00
2019-04-26T02:58:22.123Z,0.00
2019-04-26T02:59:22.116Z,0.00
2019-04-26T03:00:22.111Z,0.00
2019-04-26T03:01:22.092Z,0.00
2019-04-26T03:02:22.081Z,0.00
2019-04-26T03:03:22.083Z,0.00
2019-04-26T03:04:22.060Z,0.00
2019-04-26T03:05:22.060Z,0.00
2019-04-26T03:06:22.040Z,0.00
2019-04-26T03:07:22.029Z,0.00
2019-04-26T03:08:22.039Z,0.00
2019-04-26T03:09:22.015Z,0.00
2019-04-26T03:10:21.996Z,0.00
2019-04-26T03:11:21.987Z,0.00
2019-04-26T03:12:21.981Z,0.00
2019-04-26T03:13:21.974Z,0.00
2019-04-26T03:14:21.952Z,0.00
2019-04-26T03:15:21.942Z,0.00
2019-04-26T03:16:21.934Z,0.00
2019-04-26T03:17:21.920Z,0.00
2019-04-26T03:18:21.923Z,0.00
2019-04-26T03:19:21.899Z,0.00
2019-04-26T03:20:21.987Z,4.00
2019-04-26T03:21:21.877Z,4.00
2019-04-26T03:22:21.866Z,0.00
2019-04-26T03:23:21.866Z,0.00
2019-04-26T03:24:21.844Z,0.00
2019-04-26T03:25:21.836Z,4.00
2019-04-26T03:26:21.824Z,4.00
2019-04-26T03:27:21.811Z,4.00
2019-04-26T03:28:21.812Z,4.00
2019-04-26T03:29:21.797Z,4.00
2019-04-26T03:30:23.401Z,8.00
2019-04-26T03:31:21.782Z,8.00
2019-04-26T03:32:21.762Z,8.00
2019-04-26T03:33:21.822Z,8.00
2019-04-26T03:34:21.933Z,8.00
2019-04-26T03:35:21.730Z,8.00
2019-04-26T03:36:21.715Z,8.00
2019-04-26T03:37:21.972Z,16.00
2019-04-26T03:38:21.705Z,16.00
2019-04-26T03:39:21.685Z,16.00
2019-04-26T03:40:21.671Z,20.00
2019-04-26T03:41:21.665Z,20.00
2019-04-26T03:42:21.661Z,20.00
2019-04-26T03:43:21.668Z,24.00
2019-04-26T03:44:21.659Z,28.00
2019-04-26T03:45:21.620Z,32.00
2019-04-26T03:46:21.610Z,28.00
2019-04-26T03:47:21.598Z,32.00
2019-04-26T03:48:21.590Z,36.00
2019-04-26T03:49:21.594Z,40.00
2019-04-26T03:50:21.577Z,40.00
2019-04-26T03:51:21.569Z,48.00
2019-04-26T03:52:21.543Z,48.00
2019-04-26T03:53:21.533Z,56.00
2019-04-26T03:54:21.534Z,56.00
2019-04-26T03:55:21.512Z,64.00
2019-04-26T03:56:21.503Z,64.00
2019-04-26T03:57:21.499Z,72.00
2019-04-26T03:58:21.482Z,76.00
2019-04-26T03:59:21.481Z,84.00
2019-04-26T04:00:21.459Z,88.00
2019-04-26T04:01:21.447Z,100.00
2019-04-26T04:02:21.448Z,104.00
2019-04-26T04:03:21.429Z,112.00
2019-04-26T04:04:21.428Z,124.00
2019-04-26T04:05:21.409Z,136.00
2019-04-26T04:06:21.403Z,144.00
2019-04-26T04:07:36.215Z,156.00
2019-04-26T04:08:22.368Z,168.00
2019-04-26T04:09:21.376Z,180.00
2019-04-26T04:10:21.354Z,192.00
2019-04-26T04:11:21.376Z,200.00
2019-04-26T04:12:21.444Z,208.00
2019-04-26T04:13:21.317Z,212.00
2019-04-26T04:14:21.502Z,212.00
2019-04-26T04:15:21.297Z,220.00
2019-04-26T04:16:21.289Z,224.00
2019-04-26T04:17:21.294Z,232.00
2019-04-26T04:18:21.264Z,236.00
2019-04-26T04:19:21.270Z,248.00
2019-04-26T04:20:21.255Z,252.00
2019-04-26T04:21:21.231Z,256.00
2019-04-26T04:22:21.313Z,268.00
2019-04-26T04:23:21.214Z,276.00
2019-04-26T04:24:21.207Z,292.00
2019-04-26T04:25:21.187Z,304.00
2019-04-26T04:26:21.183Z,316.00
2019-04-26T04:27:21.167Z,328.00
2019-04-26T04:28:21.162Z,328.00
2019-04-26T04:29:21.155Z,336.00
2019-04-26T04:30:21.135Z,348.00
2019-04-26T04:31:21.205Z,360.00
2019-04-26T04:32:21.114Z,368.00
2019-04-26T04:33:21.102Z,384.00
2019-04-26T04:34:21.089Z,392.00
2019-04-26T04:35:21.099Z,396.00
2019-04-26T04:36:21.074Z,408.00
2019-04-26T04:37:21.059Z,420.00
2019-04-26T04:38:21.051Z,440.00
2019-04-26T04:39:21.044Z,456.00
2019-04-26T04:40:21.035Z,464.00
2019-04-26T04:41:21.152Z,464.00
2019-04-26T04:42:21.018Z,464.00
2019-04-26T04:43:21.132Z,468.00
2019-04-26T04:44:20.983Z,480.00
2019-04-26T04:45:20.990Z,492.00
2019-04-26T04:46:21.098Z,492.00
2019-04-26T04:47:25.590Z,484.00
2019-04-26T04:48:20.966Z,476.00
2019-04-26T04:49:20.928Z,492.00
2019-04-26T04:50:20.931Z,516.00
2019-04-26T04:51:20.912Z,540.00
2019-04-26T04:52:20.899Z,556.00
2019-04-26T04:53:20.890Z,572.00
2019-04-26T04:54:20.949Z,596.00
2019-04-26T04:55:20.874Z,632.00
2019-04-26T04:56:20.854Z,652.00
2019-04-26T04:57:20.848Z,684.00
2019-04-26T04:58:20.834Z,708.00
2019-04-26T04:59:20.822Z,720.00
2019-04-26T05:00:20.818Z,728.00
2019-04-26T05:01:20.799Z,672.00
2019-04-26T05:02:20.794Z,652.00
2019-04-26T05:03:20.778Z,636.00
2019-04-26T05:04:20.769Z,700.00
2019-04-26T05:05:20.782Z,780.00
2019-04-26T05:06:20.746Z,880.00
2019-04-26T05:07:20.733Z,1036.00
2019-04-26T05:08:20.731Z,1140.00
2019-04-26T05:09:20.712Z,1196.00
2019-04-26T05:10:20.702Z,1228.00
2019-04-26T05:11:20.703Z,1240.00
2019-04-26T05:12:20.681Z,1288.00
2019-04-26T05:13:20.671Z,1376.00
2019-04-26T05:14:20.680Z,1460.00
2019-04-26T05:15:20.649Z,1536.00
2019-04-26T05:16:20.648Z,1604.00
2019-04-26T05:17:20.628Z,1680.00
2019-04-26T05:18:20.620Z,2092.00
2019-04-26T05:19:20.612Z,2932.00
2019-04-26T05:20:20.595Z,4076.00
2019-04-26T05:21:20.597Z,3904.00
2019-04-26T05:22:20.574Z,3256.00
2019-04-26T05:23:20.562Z,2588.00
2019-04-26T05:24:20.567Z,3116.00
2019-04-26T05:25:20.552Z,2896.00
2019-04-26T05:26:20.550Z,2024.00
2019-04-26T05:27:20.521Z,2420.00
2019-04-26T05:28:20.510Z,3596.00
2019-04-26T05:29:20.498Z,5004.00
2019-04-26T05:30:20.489Z,4844.00
2019-04-26T05:31:20.494Z,4568.00
2019-04-26T05:32:20.468Z,5524.00
2019-04-26T05:33:20.455Z,6016.00
2019-04-26T05:34:20.448Z,3212.00
2019-04-26T05:35:20.437Z,2192.00
2019-04-26T05:36:20.455Z,2124.00
2019-04-26T05:37:20.417Z,2416.00
2019-04-26T05:38:20.406Z,2244.00
2019-04-26T05:39:20.396Z,2764.00
2019-04-26T05:40:20.380Z,4388.00
2019-04-26T05:41:20.380Z,4840.00
2019-04-26T05:42:20.369Z,6396.00
2019-04-26T05:43:20.347Z,5652.00
2019-04-26T05:44:20.358Z,4920.00
2019-04-26T05:45:20.331Z,4556.00
2019-04-26T05:46:20.317Z,4096.00
2019-04-26T05:47:20.326Z,4172.00
2019-04-26T05:48:20.305Z,4200.00
2019-04-26T05:49:27.670Z,6588.00
2019-04-26T05:50:21.280Z,5260.00
2019-04-26T05:51:20.264Z,2548.00
2019-04-26T05:52:20.271Z,2100.00
2019-04-26T05:53:20.248Z,2192.00
2019-04-26T05:54:20.231Z,2724.00
2019-04-26T05:55:20.219Z,2892.00
2019-04-26T05:56:20.211Z,2576.00
2019-04-26T05:57:20.215Z,3236.00
2019-04-26T05:58:20.187Z,5404.00
2019-04-26T05:59:20.183Z,4448.00
2019-04-26T06:00:20.168Z,2512.00
2019-04-26T06:01:20.155Z,2168.00
2019-04-26T06:02:20.192Z,2096.00
2019-04-26T06:03:20.134Z,2040.00
2019-04-26T06:04:20.124Z,2064.00
2019-04-26T06:05:20.112Z,2016.00
2019-04-26T06:06:20.106Z,2008.00
2019-04-26T06:07:20.092Z,1996.00
2019-04-26T06:08:31.352Z,2132.00
2019-04-26T06:09:20.072Z,2124.00
2019-04-26T06:10:20.061Z,2108.00
2019-04-26T06:11:20.050Z,2124.00
2019-04-26T06:12:20.036Z,2156.00
2019-04-26T06:13:20.036Z,2192.00
2019-04-26T06:14:20.022Z,2216.00
2019-04-26T06:15:20.008Z,2268.00
2019-04-26T06:16:19.995Z,2284.00
2019-04-26T06:17:19.984Z,2276.00
2019-04-26T06:18:20.021Z,2244.00
2019-04-26T06:19:19.961Z,2264.00
2019-04-26T06:20:23.090Z,2376.00
2019-04-26T06:21:19.946Z,2432.00
2019-04-26T06:22:19.929Z,2444.00
2019-04-26T06:23:19.931Z,2476.00
2019-04-26T06:24:19.906Z,2524.00
2019-04-26T06:25:19.903Z,2580.00
2019-04-26T06:26:19.890Z,2624.00
2019-04-26T06:27:19.875Z,2620.00
2019-04-26T06:28:19.935Z,2624.00
2019-04-26T06:29:19.868Z,2652.00
2019-04-26T06:30:19.841Z,2720.00
2019-04-26T06:31:19.834Z,2756.00
2019-04-26T06:32:19.871Z,2800.00
2019-04-26T06:33:19.834Z,2804.00
2019-04-26T06:34:19.804Z,2908.00
2019-04-26T06:35:20.298Z,2996.00
2019-04-26T06:36:19.779Z,3068.00
2019-04-26T06:37:19.767Z,3092.00
2019-04-26T06:38:19.767Z,3048.00
2019-04-26T06:39:19.747Z,2952.00
2019-04-26T06:40:19.738Z,2900.00
2019-04-26T06:41:21.550Z,2836.00
2019-04-26T06:42:19.716Z,2860.00
2019-04-26T06:43:19.890Z,2900.00
2019-04-26T06:44:19.694Z,2872.00
2019-04-26T06:45:19.683Z,3020.00
2019-04-26T06:46:19.673Z,3188.00
2019-04-26T06:47:19.665Z,3228.00
2019-04-26T06:48:19.665Z,3184.00
2019-04-26T06:49:19.641Z,3172.00
2019-04-26T06:50:19.637Z,3164.00
2019-04-26T06:51:24.862Z,3276.00
2019-04-26T06:52:20.611Z,3356.00
2019-04-26T06:53:19.623Z,3480.00
2019-04-26T06:54:19.587Z,3536.00
2019-04-26T06:55:19.577Z,3480.00
2019-04-26T06:56:19.635Z,3476.00
2019-04-26T06:57:19.561Z,3500.00
2019-04-26T06:58:19.548Z,3600.00
2019-04-26T06:59:19.545Z,3724.00
2019-04-26T07:00:19.568Z,3824.00
2019-04-26T07:01:19.542Z,3964.00
2019-04-26T07:02:19.506Z,4228.00
2019-04-26T07:03:19.493Z,4236.00
2019-04-26T07:04:19.504Z,3152.00
2019-04-26T07:05:19.470Z,4704.00
2019-04-26T07:06:19.460Z,4960.00
2019-04-26T07:07:19.452Z,5124.00
2019-04-26T07:08:19.444Z,5260.00
2019-04-26T07:09:19.436Z,5388.00
2019-04-26T07:10:19.416Z,4888.00
2019-04-26T07:11:19.407Z,4436.00
2019-04-26T07:12:19.408Z,4164.00
2019-04-26T07:13:19.399Z,4944.00
2019-04-26T07:14:19.382Z,4096.00
2019-04-26T07:15:28.347Z,4580.00
2019-04-26T07:16:23.162Z,3684.00
2019-04-26T07:17:19.341Z,3344.00
2019-04-26T07:18:19.332Z,3248.00
2019-04-26T07:19:19.332Z,3248.00
2019-04-26T07:20:19.311Z,3196.00
2019-04-26T07:21:19.301Z,3120.00
2019-04-26T07:22:19.295Z,3180.00
2019-04-26T07:23:19.310Z,3244.00
2019-04-26T07:24:19.280Z,3300.00
2019-04-26T07:25:19.261Z,3056.00
2019-04-26T07:26:19.246Z,3128.00
2019-04-26T07:27:19.241Z,3248.00
2019-04-26T07:28:19.300Z,3812.00
2019-04-26T07:29:19.237Z,3828.00
2019-04-26T07:30:21.824Z,3968.00
2019-04-26T07:31:19.200Z,3864.00
2019-04-26T07:32:19.845Z,4044.00
2019-04-26T07:33:19.171Z,4100.00
2019-04-26T07:34:19.166Z,5336.00
2019-04-26T07:35:19.157Z,5068.00
2019-04-26T07:36:19.139Z,10428.00
2019-04-26T07:37:19.160Z,6780.00
2019-04-26T07:38:19.118Z,5004.00
2019-04-26T07:39:20.734Z,28512.00
2019-04-26T07:40:19.105Z,33056.00
2019-04-26T07:41:19.116Z,6676.00
2019-04-26T07:42:19.075Z,13300.00
2019-04-26T07:43:19.064Z,43680.00
2019-04-26T07:44:19.057Z,29888.00
2019-04-26T07:45:19.054Z,37120.00
2019-04-26T07:46:19.032Z,9288.00
2019-04-26T07:47:19.023Z,8008.00
2019-04-26T07:48:19.058Z,8512.00
2019-04-26T07:49:19.009Z,8060.00
2019-04-26T07:50:19.008Z,7244.00
2019-04-26T07:51:18.984Z,6724.00
2019-04-26T07:52:18.970Z,6316.00
2019-04-26T07:53:18.976Z,6224.00
2019-04-26T07:54:18.951Z,6864.00
2019-04-26T07:55:19.127Z,7200.00
2019-04-26T07:56:18.926Z,6448.00
2019-04-26T07:57:18.924Z,6140.00
2019-04-26T07:58:18.930Z,5848.00
2019-04-26T07:59:18.902Z,5640.00
2019-04-26T08:00:18.889Z,6396.00
2019-04-26T08:01:18.883Z,5692.00
2019-04-26T08:02:19.405Z,5464.00
2019-04-26T08:03:18.856Z,5296.00
2019-04-26T08:04:18.846Z,5112.00
2019-04-26T08:05:18.832Z,4984.00
2019-04-26T08:06:18.830Z,4828.00
2019-04-26T08:07:18.817Z,4580.00
2019-04-26T08:08:18.799Z,4440.00
2019-04-26T08:09:26.842Z,4428.00
2019-04-26T08:10:19.779Z,4572.00
2019-04-26T08:11:18.775Z,4820.00
2019-04-26T08:12:18.765Z,4964.00
2019-04-26T08:13:18.750Z,4724.00
2019-04-26T08:14:18.740Z,4432.00
2019-04-26T08:15:18.728Z,4404.00
2019-04-26T08:16:18.726Z,4220.00
2019-04-26T08:17:18.705Z,4512.00
2019-04-26T08:18:18.696Z,4636.00
2019-04-26T08:19:18.695Z,4836.00
2019-04-26T08:20:18.671Z,4956.00
2019-04-26T08:21:19.368Z,4700.00
2019-04-26T08:22:24.346Z,4904.00
2019-04-26T08:23:37.836Z,5512.00
2019-04-26T08:24:19.629Z,5404.00
2019-04-26T08:25:18.621Z,5456.00
2019-04-26T08:26:18.619Z,5096.00
2019-04-26T08:27:23.082Z,4768.00
2019-04-26T08:28:19.586Z,4280.00
2019-04-26T08:29:18.578Z,3920.00
2019-04-26T08:30:19.279Z,3700.00
2019-04-26T08:31:20.031Z,3672.00
2019-04-26T08:32:18.556Z,3548.00
2019-04-26T08:33:18.536Z,3656.00
2019-04-26T08:34:21.164Z,3844.00
2019-04-26T08:35:21.737Z,4028.00
2019-04-26T08:36:18.512Z,4228.00
2019-04-26T08:37:19.288Z,4388.00
2019-04-26T08:38:22.352Z,4452.00
2019-04-26T08:39:18.471Z,4452.00
2019-04-26T08:40:25.548Z,4604.00
2019-04-26T08:41:19.480Z,4912.00
2019-04-26T08:42:23.397Z,5124.00
2019-04-26T08:43:20.198Z,5144.00
2019-04-26T08:44:18.418Z,5008.00
2019-04-26T08:45:19.552Z,5060.00
2019-04-26T08:46:18.404Z,5104.00
2019-04-26T08:47:24.524Z,5016.00
2019-04-26T08:48:23.360Z,5012.00
2019-04-26T08:49:19.368Z,5116.00
2019-04-26T08:50:18.357Z,5260.00
2019-04-26T08:51:20.669Z,5288.00
2019-04-26T08:52:18.344Z,5856.00
2019-04-26T08:53:18.323Z,6008.00
2019-04-26T08:54:18.312Z,6000.00
2019-04-26T08:55:18.305Z,5580.00
2019-04-26T08:56:20.365Z,5196.00
2019-04-26T08:57:18.290Z,4956.00
2019-04-26T08:58:18.277Z,4840.00
2019-04-26T08:59:18.259Z,4756.00
2019-04-26T09:00:18.254Z,4604.00
2019-04-26T09:01:18.249Z,4380.00
2019-04-26T09:02:18.236Z,4220.00
2019-04-26T09:03:18.222Z,4464.00
2019-04-26T09:04:18.210Z,5012.00
2019-04-26T09:05:18.204Z,6124.00
2019-04-26T09:06:18.184Z,11088.00
2019-04-26T09:07:18.194Z,8896.00
2019-04-26T09:08:18.200Z,10840.00
2019-04-26T09:09:19.758Z,22080.00
2019-04-26T09:10:18.215Z,13080.00
2019-04-26T09:11:25.894Z,6504.00
2019-04-26T09:12:23.130Z,15968.00
2019-04-26T09:13:18.120Z,18400.00
2019-04-26T09:14:18.105Z,14392.00
2019-04-26T09:15:18.097Z,12160.00
2019-04-26T09:16:18.142Z,5424.00
2019-04-26T09:17:18.078Z,4012.00
2019-04-26T09:18:18.081Z,4120.00
2019-04-26T09:19:18.049Z,4100.00
2019-04-26T09:20:28.139Z,3892.00
2019-04-26T09:21:19.271Z,3760.00
2019-04-26T09:22:18.018Z,3744.00
2019-04-26T09:23:18.015Z,4152.00
2019-04-26T09:24:20.987Z,5288.00
2019-04-26T09:25:18.983Z,17952.00
2019-04-26T09:26:18.009Z,7416.00
2019-04-26T09:27:20.939Z,6592.00
2019-04-26T09:28:17.962Z,7060.00
2019-04-26T09:29:17.944Z,7496.00
2019-04-26T09:30:17.949Z,9440.00
2019-04-26T09:31:19.624Z,16768.00
2019-04-26T09:32:17.916Z,8340.00
2019-04-26T09:33:17.981Z,7236.00
2019-04-26T09:34:17.891Z,7232.00
2019-04-26T09:35:17.893Z,9908.00
2019-04-26T09:36:18.209Z,21088.00
2019-04-26T09:37:17.858Z,10224.00
2019-04-26T09:38:17.858Z,8244.00
2019-04-26T09:39:17.836Z,10200.00
2019-04-26T09:40:21.723Z,12396.00
2019-04-26T09:41:17.816Z,8524.00
2019-04-26T09:42:17.806Z,6528.00
2019-04-26T09:43:17.826Z,6104.00
2019-04-26T09:44:17.801Z,5692.00
2019-04-26T09:45:17.773Z,5352.00
2019-04-26T09:46:17.763Z,4844.00
2019-04-26T09:47:17.752Z,4332.00
2019-04-26T09:48:17.744Z,4536.00
2019-04-26T09:49:17.789Z,5008.00
2019-04-26T09:50:17.721Z,5912.00
2019-04-26T09:51:17.711Z,5736.00
2019-04-26T09:52:17.699Z,5388.00
2019-04-26T09:53:17.689Z,5736.00
2019-04-26T09:54:17.692Z,5932.00
2019-04-26T09:55:17.669Z,7460.00
2019-04-26T09:56:17.664Z,7920.00
2019-04-26T09:57:17.646Z,10264.00
2019-04-26T09:58:17.638Z,7240.00
2019-04-26T09:59:17.637Z,7304.00
2019-04-26T10:00:17.617Z,7436.00
2019-04-26T10:01:19.722Z,6312.00
2019-04-26T10:02:18.599Z,5516.00
2019-04-26T10:03:17.585Z,6248.00
2019-04-26T10:04:17.623Z,13320.00
2019-04-26T10:05:22.011Z,9260.00
2019-04-26T10:06:18.557Z,6572.00
2019-04-26T10:07:17.544Z,6180.00
2019-04-26T10:08:17.533Z,6132.00
2019-04-26T10:09:21.332Z,6124.00
2019-04-26T10:10:23.115Z,8976.00
2019-04-26T10:11:17.504Z,12768.00
2019-04-26T10:12:17.530Z,6728.00
2019-04-26T10:13:17.480Z,5820.00
2019-04-26T10:14:17.470Z,5828.00
2019-04-26T10:15:17.467Z,7508.00
2019-04-26T10:16:17.448Z,7156.00
2019-04-26T10:17:17.595Z,6996.00
2019-04-26T10:18:20.340Z,13444.00
2019-04-26T10:19:18.416Z,9684.00
2019-04-26T10:20:17.414Z,21312.00
2019-04-26T10:21:17.429Z,16384.00
2019-04-26T10:22:17.389Z,24960.00
2019-04-26T10:23:17.377Z,14420.00
2019-04-26T10:24:17.363Z,20704.00
2019-04-26T10:25:17.364Z,10796.00
2019-04-26T10:26:17.360Z,13696.00
2019-04-26T10:27:17.332Z,9396.00
2019-04-26T10:28:17.321Z,21088.00
2019-04-26T10:29:17.311Z,21248.00
2019-04-26T10:30:17.314Z,14844.00
2019-04-26T10:31:18.431Z,19328.00
2019-04-26T10:32:17.285Z,16480.00
2019-04-26T10:33:17.274Z,20960.00
2019-04-26T10:34:17.259Z,13804.00
2019-04-26T10:35:21.189Z,25184.00
2019-04-26T10:36:17.239Z,19072.00
2019-04-26T10:37:17.227Z,19392.00
2019-04-26T10:38:19.350Z,20768.00
2019-04-26T10:39:18.209Z,18176.00
2019-04-26T10:40:17.204Z,27936.00
2019-04-26T10:41:17.195Z,20896.00
2019-04-26T10:42:17.175Z,21216.00
2019-04-26T10:43:17.167Z,12128.00
2019-04-26T10:44:17.155Z,20512.00
2019-04-26T10:45:17.157Z,16096.00
2019-04-26T10:46:17.135Z,5660.00
2019-04-26T10:47:17.128Z,5384.00
2019-04-26T10:48:17.118Z,5500.00
2019-04-26T10:49:20.440Z,5540.00
2019-04-26T10:50:18.111Z,5432.00
2019-04-26T10:51:17.089Z,5276.00
2019-04-26T10:52:17.136Z,5232.00
2019-04-26T10:53:17.062Z,5232.00
2019-04-26T10:54:17.055Z,5300.00
2019-04-26T10:55:17.481Z,5240.00
2019-04-26T10:56:20.286Z,5220.00
2019-04-26T10:57:18.041Z,5124.00
2019-04-26T10:58:17.034Z,5060.00
2019-04-26T10:59:17.001Z,4904.00
2019-04-26T11:00:18.097Z,4932.00
2019-04-26T11:01:17.021Z,4956.00
2019-04-26T11:02:16.971Z,5008.00
2019-04-26T11:03:16.964Z,4964.00
2019-04-26T11:04:16.954Z,5120.00
2019-04-26T11:05:19.216Z,5076.00
2019-04-26T11:06:16.944Z,5344.00
2019-04-26T11:07:16.925Z,5536.00
2019-04-26T11:08:16.910Z,5676.00
2019-04-26T11:09:16.917Z,5820.00
2019-04-26T11:10:16.892Z,5732.00
2019-04-26T11:11:16.889Z,5740.00
2019-04-26T11:12:16.871Z,6008.00
2019-04-26T11:13:16.860Z,8204.00
2019-04-26T11:14:18.443Z,12216.00
2019-04-26T11:15:17.841Z,23264.00
2019-04-26T11:16:16.842Z,31168.00
2019-04-26T11:17:17.809Z,41088.00
2019-04-26T11:18:19.848Z,55392.00
2019-04-26T11:19:17.801Z,60608.00
2019-04-26T11:20:16.794Z,68384.00
2019-04-26T11:21:20.975Z,68672.00
2019-04-26T11:22:28.566Z,69728.00
2019-04-26T11:23:17.760Z,71840.00
2019-04-26T11:24:19.412Z,66208.00
2019-04-26T11:25:16.741Z,63776.00
2019-04-26T11:26:16.746Z,66976.00
2019-04-26T11:27:16.730Z,67328.00
2019-04-26T11:28:17.123Z,63712.00
2019-04-26T11:29:16.703Z,59616.00
2019-04-26T11:30:20.800Z,57120.00
2019-04-26T11:31:16.728Z,69600.00
2019-04-26T11:32:16.675Z,71488.00
2019-04-26T11:33:16.680Z,68192.00
2019-04-26T11:34:19.080Z,66816.00
2019-04-26T11:35:17.663Z,66304.00
2019-04-26T11:36:16.636Z,65856.00
2019-04-26T11:37:17.803Z,62912.00
2019-04-26T11:38:16.619Z,53472.00
2019-04-26T11:39:16.629Z,56064.00
2019-04-26T11:40:16.601Z,54080.00
2019-04-26T11:41:16.596Z,40416.00
2019-04-26T11:42:16.630Z,48416.00
2019-04-26T11:43:19.522Z,21920.00
2019-04-26T11:44:16.560Z,7964.00
2019-04-26T11:45:16.587Z,6612.00
2019-04-26T11:46:16.546Z,6288.00
2019-04-26T11:47:16.541Z,7376.00
2019-04-26T11:48:16.522Z,14688.00
2019-04-26T11:49:16.516Z,38080.00
2019-04-26T11:50:17.781Z,24608.00
2019-04-26T11:51:16.496Z,60800.00
2019-04-26T11:52:16.492Z,59744.00
2019-04-26T11:53:16.474Z,40480.00
2019-04-26T11:54:16.917Z,30848.00
2019-04-26T11:55:16.454Z,20512.00
2019-04-26T11:56:16.446Z,14004.00
2019-04-26T11:57:16.454Z,18784.00
2019-04-26T11:58:17.929Z,16288.00
2019-04-26T11:59:17.416Z,17888.00
2019-04-26T12:00:16.407Z,7968.00
2019-04-26T12:01:16.396Z,6620.00
2019-04-26T12:02:17.253Z,7124.00
2019-04-26T12:03:16.376Z,6092.00
2019-04-26T12:04:16.366Z,8380.00
2019-04-26T12:05:16.357Z,8148.00
2019-04-26T12:06:16.345Z,16256.00
2019-04-26T12:07:16.344Z,15280.00
2019-04-26T12:08:16.326Z,8200.00
2019-04-26T12:09:16.317Z,5640.00
2019-04-26T12:10:16.313Z,4512.00
2019-04-26T12:11:18.583Z,3996.00
2019-04-26T12:12:16.294Z,3536.00
2019-04-26T12:13:16.300Z,3316.00
2019-04-26T12:14:20.473Z,3244.00
2019-04-26T12:15:29.477Z,3120.00
2019-04-26T12:16:18.602Z,3196.00
2019-04-26T12:17:16.529Z,3056.00
2019-04-26T12:18:16.271Z,3588.00
2019-04-26T12:19:18.265Z,3008.00
2019-04-26T12:20:16.225Z,3352.00
2019-04-26T12:21:16.194Z,3552.00
2019-04-26T12:22:16.191Z,4148.00
2019-04-26T12:23:20.794Z,2980.00
2019-04-26T12:24:17.169Z,3336.00
2019-04-26T12:25:16.150Z,3168.00
2019-04-26T12:26:17.363Z,3316.00